createdAt,value
2023-05-12T00:00:25.935Z,0.61
2023-05-12T00:01:42.988Z,0.47
2023-05-12T00:03:00.022Z,0.7
2023-05-12T00:04:17.638Z,0.64
2023-05-12T00:05:33.944Z,0.5
2023-05-12T00:06:50.945Z,0.54
2023-05-12T00:08:07.946Z,0.56
2023-05-12T00:09:24.982Z,0.56
2023-05-12T00:10:41.980Z,0.29
2023-05-12T00:11:58.987Z,0.53
2023-05-12T00:13:16.000Z,0.76
2023-05-12T00:14:33.002Z,0.65
2023-05-12T00:15:49.954Z,0.41
2023-05-12T00:17:07.074Z,0.67
2023-05-12T00:18:24.004Z,0.35
2023-05-12T00:19:40.976Z,0.43
2023-05-12T00:20:58.042Z,0.82
2023-05-12T00:22:15.072Z,1.17
2023-05-12T00:23:32.056Z,0.53
2023-05-12T00:24:48.994Z,0.64
2023-05-12T00:26:05.989Z,0.45
2023-05-12T00:27:23.045Z,0.84
2023-05-12T00:28:39.974Z,0.51
2023-05-12T00:29:57.004Z,0.69
2023-05-12T00:31:14.018Z,0.55
2023-05-12T00:32:31.124Z,0.69
2023-05-12T00:33:47.994Z,0.49
2023-05-12T00:35:05.599Z,0.56
2023-05-12T00:36:23.002Z,0.38
2023-05-12T00:37:40.049Z,0.73
2023-05-12T00:38:56.985Z,0.8
2023-05-12T00:40:14.016Z,0.65
2023-05-12T00:41:31.027Z,0.42
2023-05-12T00:42:48.084Z,0.37
2023-05-12T00:44:04.993Z,0.5
2023-05-12T00:45:22.058Z,0.5
2023-05-12T00:46:39.020Z,0.58
2023-05-12T00:47:56.068Z,0.7
2023-05-12T00:49:13.051Z,0.36
2023-05-12T00:50:30.107Z,0.77
2023-05-12T00:51:47.091Z,0.55
2023-05-12T00:53:04.046Z,0.45
2023-05-12T00:54:21.117Z,0.69
2023-05-12T00:55:38.096Z,0.48
2023-05-12T00:56:55.072Z,0.55
2023-05-12T00:58:12.060Z,0.52
2023-05-12T00:59:29.034Z,0.52
2023-05-12T01:00:46.053Z,0.51
2023-05-12T01:02:03.140Z,0.76
2023-05-12T01:03:20.138Z,0.43
2023-05-12T01:04:37.072Z,0.54
2023-05-12T01:05:54.106Z,0.4
2023-05-12T01:07:11.035Z,0.33
2023-05-12T01:08:28.139Z,0.46
2023-05-12T01:09:45.050Z,0.47
2023-05-12T01:11:02.122Z,0.48
2023-05-12T01:12:19.385Z,0.51
2023-05-12T01:13:36.065Z,0.6
2023-05-12T01:14:53.059Z,0.63
2023-05-12T01:16:10.080Z,0.42
2023-05-12T01:17:27.500Z,0.49
2023-05-12T01:18:45.105Z,0.49
2023-05-12T01:20:02.084Z,0.34
2023-05-12T01:21:19.079Z,0.63
2023-05-12T01:22:36.869Z,0.5
2023-05-12T01:23:54.254Z,0.32
2023-05-12T01:25:11.100Z,0.48
2023-05-12T01:26:28.064Z,0.87
2023-05-12T01:27:45.175Z,0.84
2023-05-12T01:29:02.109Z,0.44
2023-05-12T01:30:19.594Z,0.61
2023-05-12T01:31:36.163Z,0.53
2023-05-12T01:32:53.106Z,0.68
2023-05-12T01:34:10.114Z,0.56
2023-05-12T01:35:27.112Z,0.79
2023-05-12T01:36:44.088Z,0.94
2023-05-12T01:38:01.112Z,1.3
2023-05-12T01:39:18.114Z,0.42
2023-05-12T01:40:35.132Z,0.57
2023-05-12T01:41:52.104Z,0.46
2023-05-12T01:43:09.120Z,0.51
2023-05-12T01:44:26.092Z,0.33
2023-05-12T01:45:43.161Z,0.77
2023-05-12T01:47:00.116Z,0.67
2023-05-12T01:48:17.097Z,0.37
2023-05-12T01:49:34.139Z,0.63
2023-05-12T01:50:51.117Z,0.52
2023-05-12T01:52:08.121Z,0.58
2023-05-12T01:53:25.135Z,0.69
2023-05-12T01:54:42.136Z,0.56
2023-05-12T01:55:59.138Z,0.35
2023-05-12T01:57:16.160Z,0.43
2023-05-12T01:58:33.116Z,0.61
2023-05-12T01:59:50.168Z,0.53
2023-05-12T02:01:07.119Z,0.87
2023-05-12T02:02:24.174Z,0.49
2023-05-12T02:03:41.213Z,0.5
2023-05-12T02:04:58.350Z,0.33
2023-05-12T02:06:15.214Z,0.8
2023-05-12T02:07:32.147Z,0.45
2023-05-12T02:08:49.186Z,0.91
2023-05-12T02:10:06.176Z,0.46
2023-05-12T02:11:23.175Z,0.61
2023-05-12T02:12:40.163Z,0.75
2023-05-12T02:13:57.142Z,0.87
2023-05-12T02:15:14.220Z,0.51
2023-05-12T02:16:31.211Z,0.42
2023-05-12T02:17:48.228Z,0.79
2023-05-12T02:19:05.237Z,0.47
2023-05-12T02:20:22.460Z,0.46
2023-05-12T02:21:39.195Z,0.56
2023-05-12T02:22:56.201Z,0.47
2023-05-12T02:24:14.873Z,0.36
2023-05-12T02:25:30.232Z,0.47
2023-05-12T02:26:47.207Z,0.38
2023-05-12T02:28:04.202Z,0.38
2023-05-12T02:29:21.221Z,0.4
2023-05-12T02:30:38.236Z,0.22
2023-05-12T02:31:55.193Z,0.37
2023-05-12T02:33:12.156Z,0.21
2023-05-12T02:34:29.251Z,0.37
2023-05-12T02:35:46.316Z,0.43
2023-05-12T02:37:03.201Z,0.34
2023-05-12T02:38:20.260Z,0.26
2023-05-12T02:39:37.212Z,0.22
2023-05-12T02:40:54.241Z,0
2023-05-12T02:42:11.194Z,0.1
2023-05-12T02:43:28.180Z,0.25
2023-05-12T02:44:45.337Z,0
2023-05-12T02:46:02.295Z,0
2023-05-12T02:47:19.195Z,0.46
2023-05-12T02:48:36.194Z,0
2023-05-12T02:49:53.215Z,0
2023-05-12T02:51:10.789Z,0.3
2023-05-12T02:52:28.279Z,0.07
2023-05-12T02:53:45.204Z,0.44
2023-05-12T02:55:02.246Z,0
2023-05-12T02:56:19.191Z,0.77
2023-05-12T02:57:36.230Z,0.4
2023-05-12T02:58:53.237Z,0
2023-05-12T03:00:10.247Z,0.27
2023-05-12T03:01:27.266Z,0
2023-05-12T03:02:44.367Z,0.13
2023-05-12T03:04:01.297Z,0.16
2023-05-12T03:05:18.304Z,0
2023-05-12T03:06:35.326Z,0.53
2023-05-12T03:07:52.266Z,0.35
2023-05-12T03:09:09.209Z,0.48
2023-05-12T03:10:26.240Z,0.55
2023-05-12T03:11:43.858Z,0.59
2023-05-12T03:13:00.237Z,0.39
2023-05-12T03:14:17.235Z,0.47
2023-05-12T03:15:34.260Z,0.55
2023-05-12T03:16:51.292Z,0.47
2023-05-12T03:18:08.248Z,0.27
2023-05-12T03:19:25.240Z,0.57
2023-05-12T03:20:42.265Z,0.44
2023-05-12T03:21:59.448Z,0.22
2023-05-12T03:23:16.242Z,0.24
2023-05-12T03:24:33.290Z,0.43
2023-05-12T03:25:50.259Z,0.22
2023-05-12T03:27:07.278Z,0.11
2023-05-12T03:28:24.257Z,0.73
2023-05-12T03:29:41.265Z,0.71
2023-05-12T03:30:58.313Z,0.37
2023-05-12T03:32:15.332Z,0.38
2023-05-12T03:33:32.274Z,0.23
2023-05-12T03:34:49.266Z,0.24
2023-05-12T03:36:06.260Z,0
2023-05-12T03:37:23.333Z,0.48
2023-05-12T03:38:40.319Z,0.23
2023-05-12T03:39:57.255Z,0.38
2023-05-12T03:41:14.275Z,0.68
2023-05-12T03:42:31.266Z,0.55
2023-05-12T03:43:48.340Z,0.36
2023-05-12T03:45:05.283Z,0
2023-05-12T03:46:22.422Z,0.19
2023-05-12T03:47:39.373Z,0.28
2023-05-12T03:48:56.309Z,0.3
2023-05-12T03:50:13.306Z,0
2023-05-12T03:51:30.274Z,0.31
2023-05-12T03:52:47.314Z,0.35
2023-05-12T03:54:04.303Z,0.15
2023-05-12T03:55:21.301Z,0.4
2023-05-12T03:56:38.311Z,0.14
2023-05-12T03:57:55.335Z,0
2023-05-12T03:59:12.326Z,0.55
2023-05-12T04:00:29.301Z,0.36
2023-05-12T04:01:46.335Z,0.27
2023-05-12T04:03:03.401Z,0.4
2023-05-12T04:04:20.361Z,0.45
2023-05-12T04:05:37.300Z,0.17
2023-05-12T04:06:54.320Z,0.33
2023-05-12T04:08:11.335Z,0.27
2023-05-12T04:09:28.356Z,0.11
2023-05-12T04:10:45.306Z,0.07
2023-05-12T04:12:02.324Z,0.28
2023-05-12T04:13:19.367Z,0.24
2023-05-12T04:14:42.694Z,0.26
2023-05-12T04:15:53.988Z,0.47
2023-05-12T04:17:10.320Z,0.5
2023-05-12T04:18:27.458Z,0.52
2023-05-12T04:19:44.443Z,0.39
2023-05-12T04:21:01.449Z,0.29
2023-05-12T04:22:18.947Z,0.34
2023-05-12T04:23:36.348Z,0.32
2023-05-12T04:24:53.960Z,0.34
2023-05-12T04:26:11.368Z,0.27
2023-05-12T04:27:28.378Z,0.58
2023-05-12T04:28:45.354Z,0.33
2023-05-12T04:30:02.392Z,0.69
2023-05-12T04:31:19.499Z,0.4
2023-05-12T04:32:36.497Z,0.52
2023-05-12T04:33:53.374Z,0.64
2023-05-12T04:35:11.473Z,0.59
2023-05-12T04:36:28.964Z,0.67
2023-05-12T04:37:46.473Z,0.87
2023-05-12T04:39:03.394Z,0.84
2023-05-12T04:40:20.542Z,0.64
2023-05-12T04:41:37.526Z,0.46
2023-05-12T04:42:54.396Z,0.84
2023-05-12T04:44:11.442Z,0.76
2023-05-12T04:45:28.355Z,0.59
2023-05-12T04:46:45.367Z,0.4
2023-05-12T04:48:02.481Z,0.72
2023-05-12T04:49:19.394Z,1.33
2023-05-12T04:50:36.425Z,0.83
2023-05-12T04:51:53.448Z,0.85
2023-05-12T04:53:11.435Z,0.75
2023-05-12T04:54:27.468Z,1.03
2023-05-12T04:55:44.408Z,0.79
2023-05-12T04:57:01.410Z,0.68
2023-05-12T04:58:18.387Z,0.76
2023-05-12T04:59:35.387Z,0.53
2023-05-12T05:00:52.451Z,0.55
2023-05-12T05:02:09.494Z,0.71
2023-05-12T05:03:26.503Z,0.72
2023-05-12T05:04:43.401Z,0.57
2023-05-12T05:06:00.394Z,0.49
2023-05-12T05:07:17.417Z,1.13
2023-05-12T05:08:34.420Z,0.46
2023-05-12T05:09:52.024Z,0.57
2023-05-12T05:11:08.448Z,0.7
2023-05-12T05:12:25.471Z,0.57
2023-05-12T05:13:42.417Z,0.85
2023-05-12T05:14:59.485Z,0.77
2023-05-12T05:16:16.449Z,0.78
2023-05-12T05:17:33.475Z,0.53
2023-05-12T05:18:50.472Z,0.6
2023-05-12T05:20:11.540Z,0.66
2023-05-12T05:21:24.449Z,0.81
2023-05-12T05:22:41.436Z,0.7
2023-05-12T05:23:58.452Z,0.77
2023-05-12T05:25:15.514Z,0.72
2023-05-12T05:26:32.646Z,0.68
2023-05-12T05:27:49.521Z,0.74
2023-05-12T05:29:06.512Z,0.47
2023-05-12T05:30:23.437Z,0.29
2023-05-12T05:31:40.472Z,0.44
2023-05-12T05:32:57.489Z,0.5
2023-05-12T05:34:14.541Z,0.73
2023-05-12T05:35:31.433Z,0.56
2023-05-12T05:36:48.446Z,1.09
2023-05-12T05:38:05.455Z,0.97
2023-05-12T05:39:22.576Z,0.65
2023-05-12T05:40:51.981Z,0.65
2023-05-12T05:41:56.472Z,0.31
2023-05-12T05:43:13.528Z,0.67
2023-05-12T05:44:30.481Z,0.92
2023-05-12T05:45:47.446Z,0.82
2023-05-12T05:47:04.604Z,0.6
2023-05-12T05:48:21.486Z,0.47
2023-05-12T05:49:38.562Z,0.75
2023-05-12T05:50:55.508Z,0.63
2023-05-12T05:52:12.502Z,1.31
2023-05-12T05:53:29.514Z,0.95
2023-05-12T05:54:46.494Z,0.83
2023-05-12T05:56:03.483Z,1.19
2023-05-12T05:57:20.511Z,1.09
2023-05-12T05:58:37.526Z,0.89
2023-05-12T05:59:54.469Z,0.93
2023-05-12T06:01:11.466Z,0.64
2023-05-12T06:02:28.614Z,0.31
2023-05-12T06:03:45.577Z,0.22
2023-05-12T06:05:02.496Z,0.45
2023-05-12T06:06:19.516Z,1.8
2023-05-12T06:07:36.501Z,0.51
2023-05-12T06:08:53.549Z,0.42
2023-05-12T06:10:10.488Z,0.29
2023-05-12T06:11:27.590Z,0.36
2023-05-12T06:12:44.543Z,0.52
2023-05-12T06:14:01.561Z,0.3
2023-05-12T06:15:18.800Z,0.2
2023-05-12T06:16:35.641Z,0.43
2023-05-12T06:17:52.601Z,0.36
2023-05-12T06:19:09.687Z,0.57
2023-05-12T06:20:26.573Z,0.42
2023-05-12T06:21:43.533Z,0.33
2023-05-12T06:23:00.520Z,0.58
2023-05-12T06:24:17.553Z,0.88
2023-05-12T06:25:34.554Z,0.42
2023-05-12T06:26:51.551Z,0.5
2023-05-12T06:28:08.584Z,0.64
2023-05-12T06:29:25.565Z,0.69
2023-05-12T06:30:42.607Z,0.6
2023-05-12T06:31:59.569Z,1.22
2023-05-12T06:33:16.576Z,0.53
2023-05-12T06:34:33.516Z,0.46
2023-05-12T06:35:50.563Z,0.56
2023-05-12T06:37:07.612Z,0.58
2023-05-12T06:38:24.543Z,0.6
2023-05-12T06:39:41.527Z,0.35
2023-05-12T06:40:58.610Z,0.27
2023-05-12T06:42:16.926Z,0.69
2023-05-12T06:43:33.561Z,0.5
2023-05-12T06:44:50.575Z,0.41
2023-05-12T06:46:07.571Z,0.17
2023-05-12T06:47:24.625Z,0.25
2023-05-12T06:48:41.597Z,0.32
2023-05-12T06:49:58.577Z,0.48
2023-05-12T06:51:15.596Z,0.39
2023-05-12T06:52:32.556Z,1.1
2023-05-12T06:53:49.592Z,0.29
2023-05-12T06:55:06.584Z,0.28
2023-05-12T06:56:23.613Z,0.58
2023-05-12T06:57:40.616Z,0.61
2023-05-12T06:58:57.628Z,1.32
2023-05-12T07:00:14.629Z,0.65
2023-05-12T07:01:31.595Z,0.17
2023-05-12T07:02:48.623Z,0.08
2023-05-12T07:04:05.621Z,0.45
2023-05-12T07:05:23.152Z,0.38
2023-05-12T07:06:39.623Z,1.93
2023-05-12T07:07:56.673Z,0.89
2023-05-12T07:09:13.627Z,1.14
2023-05-12T07:10:30.679Z,0.93
2023-05-12T07:11:47.592Z,1.32
2023-05-12T07:13:04.827Z,1.36
2023-05-12T07:14:21.598Z,1.18
2023-05-12T07:15:38.749Z,2.22
2023-05-12T07:16:55.914Z,2.3
2023-05-12T07:18:12.683Z,1.54
2023-05-12T07:19:29.600Z,1.65
2023-05-12T07:20:46.669Z,2.09
2023-05-12T07:22:03.633Z,1.05
2023-05-12T07:23:20.668Z,1.29
2023-05-12T07:24:37.712Z,0.69
2023-05-12T07:25:54.645Z,0.84
2023-05-12T07:27:11.649Z,1.21
2023-05-12T07:28:28.657Z,2.59
2023-05-12T07:29:46.149Z,1.12
2023-05-12T07:31:03.698Z,1.62
2023-05-12T07:32:20.646Z,2.08
2023-05-12T07:33:37.659Z,2.07
2023-05-12T07:34:54.654Z,0.8
2023-05-12T07:36:11.655Z,1.73
2023-05-12T07:37:28.638Z,1.79
2023-05-12T07:38:45.661Z,1.15
2023-05-12T07:40:02.697Z,1.82
2023-05-12T07:41:19.642Z,0.65
2023-05-12T07:42:36.708Z,0.74
2023-05-12T07:43:53.825Z,0.92
2023-05-12T07:45:10.686Z,0.9
2023-05-12T07:46:27.702Z,1.08
2023-05-12T07:47:44.725Z,1.8
2023-05-12T07:49:01.728Z,0.98
2023-05-12T07:50:18.784Z,1
2023-05-12T07:51:35.671Z,0.87
2023-05-12T07:52:52.752Z,1
2023-05-12T07:54:09.704Z,1.03
2023-05-12T07:55:26.722Z,1.03
2023-05-12T07:56:43.687Z,0.83
2023-05-12T07:58:01.114Z,0.64
2023-05-12T07:59:17.717Z,0.67
2023-05-12T08:00:34.682Z,0.93
2023-05-12T08:01:51.750Z,0.97
2023-05-12T08:03:08.805Z,1.02
2023-05-12T08:04:25.761Z,1.24
2023-05-12T08:05:42.706Z,0.71
2023-05-12T08:06:59.689Z,0.5
2023-05-12T08:08:16.807Z,0.58
2023-05-12T08:09:33.862Z,1
2023-05-12T08:10:50.721Z,0.73
2023-05-12T08:12:07.725Z,0.65
2023-05-12T08:13:24.695Z,0.92
2023-05-12T08:14:41.808Z,0.37
2023-05-12T08:15:58.790Z,0.31
2023-05-12T08:17:16.978Z,0.49
2023-05-12T08:18:33.818Z,0.65
2023-05-12T08:19:50.745Z,0.64
2023-05-12T08:21:08.020Z,1.88
2023-05-12T08:22:24.725Z,0.46
2023-05-12T08:23:41.744Z,0.73
2023-05-12T08:24:58.849Z,0.73
2023-05-12T08:26:15.718Z,0.52
2023-05-12T08:27:32.718Z,0.47
2023-05-12T08:28:49.915Z,0.82
2023-05-12T08:30:06.981Z,1
2023-05-12T08:31:23.748Z,1.11
2023-05-12T08:32:40.866Z,1.08
2023-05-12T08:34:08.845Z,0.98
2023-05-12T08:35:14.808Z,1.18
2023-05-12T08:36:31.740Z,1.01
2023-05-12T08:37:48.770Z,1.06
2023-05-12T08:39:05.774Z,0.66
2023-05-12T08:40:22.773Z,1.42
2023-05-12T08:41:39.883Z,1.3
2023-05-12T08:42:56.759Z,1.64
2023-05-12T08:44:13.790Z,1.95
2023-05-12T08:45:31.193Z,1.6
2023-05-12T08:46:47.852Z,2.5
2023-05-12T08:48:05.003Z,0.99
2023-05-12T08:49:21.815Z,0.72
2023-05-12T08:50:38.787Z,1.59
2023-05-12T08:51:58.016Z,1.02
2023-05-12T08:53:12.791Z,0.8
2023-05-12T08:54:29.865Z,1.03
2023-05-12T08:55:58.593Z,0.94
2023-05-12T08:58:27.732Z,0.75
2023-05-12T08:59:37.926Z,1.31
2023-05-12T09:00:55.053Z,0.58
2023-05-12T09:02:11.839Z,0.78
2023-05-12T09:03:28.821Z,0.68
2023-05-12T09:04:45.844Z,0.82
2023-05-12T09:06:02.824Z,0.71
2023-05-12T09:07:20.244Z,0.77
2023-05-12T09:08:37.811Z,0.91
2023-05-12T09:09:54.794Z,0.86
2023-05-12T09:11:11.797Z,0.73
2023-05-12T09:12:28.861Z,1.51
2023-05-12T09:13:45.809Z,0.85
2023-05-12T09:15:02.831Z,0.8
2023-05-12T09:16:20.171Z,0.44
2023-05-12T09:17:36.866Z,1.1
2023-05-12T09:18:53.932Z,0.94
2023-05-12T09:20:17.827Z,0.83
2023-05-12T09:21:27.809Z,1.21
2023-05-12T09:22:44.877Z,1.52
2023-05-12T09:24:01.838Z,0.93
2023-05-12T09:25:19.167Z,0.61
2023-05-12T09:26:35.872Z,0.66
2023-05-12T09:27:52.870Z,1.17
2023-05-12T09:29:12.047Z,2.34
2023-05-12T09:30:26.974Z,1.52
2023-05-12T09:31:44.066Z,0.96
2023-05-12T09:33:00.925Z,1.41
2023-05-12T09:34:17.845Z,0.86
2023-05-12T09:35:34.881Z,1.77
2023-05-12T09:36:51.857Z,2.44
2023-05-12T09:38:09.112Z,1.63
2023-05-12T09:39:25.834Z,1.63
2023-05-12T09:40:42.949Z,1.53
2023-05-12T09:41:59.972Z,0.73
2023-05-12T09:43:16.892Z,0.67
2023-05-12T09:44:33.982Z,0.73
2023-05-12T09:45:50.303Z,0.3
2023-05-12T09:47:08.171Z,0.72
2023-05-12T09:48:26.875Z,1.62
2023-05-12T09:49:41.961Z,1.91
2023-05-12T09:50:58.945Z,1.83
2023-05-12T09:52:16.016Z,1.57
2023-05-12T09:53:32.856Z,1.12
2023-05-12T09:54:49.869Z,1.05
2023-05-12T09:56:06.895Z,1.76
2023-05-12T09:57:23.963Z,0.86
2023-05-12T09:58:41.081Z,1.22
2023-05-12T09:59:57.890Z,0.91
2023-05-12T10:01:22.407Z,1.28
2023-05-12T10:02:32.125Z,1.79
2023-05-12T10:03:48.889Z,1.13
2023-05-12T10:05:06.021Z,1.2
2023-05-12T10:06:22.954Z,1.44
2023-05-12T10:07:39.962Z,1.38
2023-05-12T10:08:56.907Z,1.23
2023-05-12T10:10:14.006Z,1.24
2023-05-12T10:11:30.946Z,2.15
2023-05-12T10:12:47.970Z,1.21
2023-05-12T10:14:04.935Z,1.59
2023-05-12T10:15:22.080Z,1.11
2023-05-12T10:16:38.341Z,0.25
2023-05-12T10:17:54.622Z,0.6
2023-05-12T10:19:11.369Z,0.71
2023-05-12T10:20:27.938Z,1.13
2023-05-12T10:21:45.075Z,1.51
2023-05-12T10:23:02.030Z,1.39
2023-05-12T10:24:18.941Z,1.86
2023-05-12T10:25:36.047Z,1.41
2023-05-12T10:26:52.927Z,0.68
2023-05-12T10:28:09.956Z,0.73
2023-05-12T10:29:26.974Z,0.75
2023-05-12T10:30:43.972Z,0.93
2023-05-12T10:32:00.995Z,2.79
2023-05-12T10:33:18.053Z,1.21
2023-05-12T10:34:34.986Z,1
2023-05-12T10:35:52.014Z,1.51
2023-05-12T10:37:09.078Z,1.77
2023-05-12T10:38:25.954Z,1.67
2023-05-12T10:39:43.053Z,0.96
2023-05-12T10:41:00.010Z,1.03
2023-05-12T10:42:16.995Z,1.04
2023-05-12T10:43:33.976Z,1.4
2023-05-12T10:44:51.086Z,1.44
2023-05-12T10:46:08.084Z,1.82
2023-05-12T10:47:25.015Z,1.06
2023-05-12T10:48:42.066Z,1.84
2023-05-12T10:49:59.003Z,1.41
2023-05-12T10:51:15.986Z,1.31
2023-05-12T10:52:33.015Z,1.3
2023-05-12T10:53:52.703Z,1.31
2023-05-12T10:55:06.976Z,1.13
2023-05-12T10:56:24.137Z,1.7
2023-05-12T10:57:41.368Z,1.2
2023-05-12T10:58:58.382Z,1.61
2023-05-12T11:00:15.555Z,1.58
2023-05-12T11:01:32.508Z,1.84
2023-05-12T11:02:49.962Z,1.5
2023-05-12T11:04:06.593Z,1.39
2023-05-12T11:05:23.473Z,1.33
2023-05-12T11:06:40.908Z,0.92
2023-05-12T11:07:57.212Z,2.54
2023-05-12T11:09:15.189Z,1.45
2023-05-12T11:10:31.362Z,1.36
2023-05-12T11:11:48.107Z,1.01
2023-05-12T11:13:05.082Z,1.3
2023-05-12T11:14:22.015Z,2.18
2023-05-12T11:15:39.078Z,0.75
2023-05-12T11:16:56.018Z,1.03
2023-05-12T11:18:13.219Z,1.03
2023-05-12T11:19:30.096Z,2.12
2023-05-12T11:20:47.040Z,3.3
2023-05-12T11:22:04.115Z,1.41
2023-05-12T11:23:21.056Z,1.47
2023-05-12T11:24:38.055Z,1.23
2023-05-12T11:25:55.138Z,2.2
2023-05-12T11:27:12.042Z,1.06
2023-05-12T11:28:29.120Z,0.96
2023-05-12T11:29:46.084Z,1.07
2023-05-12T11:31:02.540Z,0.77
2023-05-12T11:32:19.277Z,1.18
2023-05-12T11:33:35.491Z,0.82
2023-05-12T11:34:51.550Z,0.74
2023-05-12T11:36:13.059Z,1.05
2023-05-12T11:37:30.130Z,2.16
2023-05-12T11:38:47.068Z,1.17
2023-05-12T11:40:04.169Z,0.91
2023-05-12T11:41:21.080Z,1.57
2023-05-12T11:42:38.139Z,1.27
2023-05-12T11:43:55.108Z,0.66
2023-05-12T11:45:12.080Z,2.14
2023-05-12T11:46:29.162Z,0.74
2023-05-12T11:47:46.136Z,0.89
2023-05-12T11:49:04.137Z,0.82
2023-05-12T11:50:21.170Z,0.8
2023-05-12T11:51:38.312Z,0.78
2023-05-12T11:52:56.128Z,1
2023-05-12T11:54:13.096Z,0.95
2023-05-12T11:55:30.123Z,1.55
2023-05-12T11:56:47.104Z,0.87
2023-05-12T11:58:04.270Z,1.96
2023-05-12T11:59:21.162Z,1.43
2023-05-12T12:00:38.105Z,1.51
2023-05-12T12:01:55.258Z,1.12
2023-05-12T12:03:12.269Z,1.25
2023-05-12T12:04:29.159Z,1.17
2023-05-12T12:05:46.176Z,1.16
2023-05-12T12:07:02.519Z,0.59
2023-05-12T12:08:19.190Z,1.2
2023-05-12T12:09:36.145Z,1.55
2023-05-12T12:10:53.146Z,0.73
2023-05-12T12:12:10.128Z,0.92
2023-05-12T12:13:27.410Z,1.81
2023-05-12T12:14:45.158Z,2.94
2023-05-12T12:16:02.242Z,1.78
2023-05-12T12:17:19.142Z,1.34
2023-05-12T12:18:36.264Z,2.41
2023-05-12T12:19:53.395Z,2.39
2023-05-12T12:21:10.188Z,1
2023-05-12T12:22:27.164Z,1.07
2023-05-12T12:23:50.733Z,0.98
2023-05-12T12:25:01.135Z,0.81
2023-05-12T12:26:18.171Z,1.69
2023-05-12T12:27:35.209Z,1
2023-05-12T12:28:52.187Z,2.41
2023-05-12T12:30:09.190Z,1.3
2023-05-12T12:31:26.234Z,1.31
2023-05-12T12:32:43.243Z,1.62
2023-05-12T12:34:00.178Z,1.25
2023-05-12T12:35:17.211Z,1.59
2023-05-12T12:36:34.224Z,1.89
2023-05-12T12:37:51.263Z,0.84
2023-05-12T12:39:08.272Z,1.33
2023-05-12T12:40:25.168Z,1.52
2023-05-12T12:41:42.212Z,1.14
2023-05-12T12:42:59.199Z,2.42
2023-05-12T12:44:16.208Z,2.32
2023-05-12T12:45:33.199Z,1.43
2023-05-12T12:46:50.215Z,0.71
2023-05-12T12:48:07.284Z,1.66
2023-05-12T12:49:24.196Z,0.94
2023-05-12T12:50:41.196Z,1.33
2023-05-12T12:51:58.323Z,0.56
2023-05-12T12:53:15.271Z,1.23
2023-05-12T12:54:32.228Z,1.44
2023-05-12T12:55:49.210Z,1.21
2023-05-12T12:57:06.243Z,1.53
2023-05-12T12:58:23.294Z,1.07
2023-05-12T12:59:40.234Z,1.12
2023-05-12T13:00:57.267Z,0.83
2023-05-12T13:02:14.281Z,0.92
2023-05-12T13:03:31.296Z,0.91
2023-05-12T13:04:48.221Z,1.23
2023-05-12T13:06:05.245Z,0.68
2023-05-12T13:07:22.272Z,1.63
2023-05-12T13:08:39.264Z,1.01
2023-05-12T13:09:56.268Z,0.6
2023-05-12T13:11:13.219Z,0.83
2023-05-12T13:12:30.292Z,0.83
2023-05-12T13:13:47.325Z,1.63
2023-05-12T13:15:04.381Z,2.08
2023-05-12T13:16:21.283Z,2.31
2023-05-12T13:17:38.317Z,0.9
2023-05-12T13:18:55.269Z,0.99
2023-05-12T13:20:12.307Z,1.35
2023-05-12T13:21:29.368Z,1.92
2023-05-12T13:22:46.273Z,1.77
2023-05-12T13:24:03.312Z,1.28
2023-05-12T13:25:20.537Z,3.53
2023-05-12T13:26:37.283Z,1.42
2023-05-12T13:27:54.337Z,0.98
2023-05-12T13:29:11.304Z,1.64
2023-05-12T13:30:28.374Z,1.91
2023-05-12T13:31:45.305Z,1.29
2023-05-12T13:33:03.809Z,0.99
2023-05-12T13:34:19.326Z,0.95
2023-05-12T13:35:36.318Z,0.94
2023-05-12T13:36:53.329Z,2.79
2023-05-12T13:38:10.328Z,1.37
2023-05-12T13:39:27.276Z,1.36
2023-05-12T13:40:44.466Z,1.3
2023-05-12T13:42:01.362Z,1.75
2023-05-12T13:43:18.304Z,1.69
2023-05-12T13:44:35.340Z,2.38
2023-05-12T13:45:52.375Z,2.4
2023-05-12T13:47:09.517Z,1.52
2023-05-12T13:48:26.327Z,1.1
2023-05-12T13:49:43.335Z,0.84
2023-05-12T13:51:00.333Z,0.62
2023-05-12T13:52:17.336Z,1.12
2023-05-12T13:53:34.362Z,1.7
2023-05-12T13:54:51.539Z,1.75
2023-05-12T13:56:08.356Z,2.28
2023-05-12T13:57:25.315Z,1.2
2023-05-12T13:58:42.571Z,1.81
2023-05-12T13:59:59.353Z,2.11
2023-05-12T14:01:16.412Z,4.08
2023-05-12T14:02:33.379Z,3.41
2023-05-12T14:03:50.339Z,3.35
2023-05-12T14:05:07.430Z,3.55
2023-05-12T14:06:24.391Z,1.74
2023-05-12T14:07:41.313Z,1.77
2023-05-12T14:08:58.568Z,2.18
2023-05-12T14:10:15.342Z,1.46
2023-05-12T14:11:32.454Z,0.67
2023-05-12T14:12:49.440Z,1.36
2023-05-12T14:14:06.551Z,0.91
2023-05-12T14:15:32.769Z,1.27
2023-05-12T14:16:41.446Z,1.37
2023-05-12T14:17:58.465Z,1.28
2023-05-12T14:19:15.426Z,2.47
2023-05-12T14:20:32.406Z,1.88
2023-05-12T14:21:49.450Z,4
2023-05-12T14:23:06.653Z,2.14
2023-05-12T14:24:23.506Z,2.42
2023-05-12T14:25:40.380Z,2.05
2023-05-12T14:26:57.404Z,2.6
2023-05-12T14:28:14.497Z,2.45
2023-05-12T14:29:31.447Z,2.34
2023-05-12T14:30:48.535Z,3.75
2023-05-12T14:32:05.433Z,2.01
2023-05-12T14:33:22.439Z,2.03
2023-05-12T14:34:39.447Z,1.53
2023-05-12T14:36:06.317Z,1.96
2023-05-12T14:37:13.408Z,1.89
2023-05-12T14:38:30.413Z,3.83
2023-05-12T14:39:47.469Z,2.59
2023-05-12T14:41:04.470Z,3.26
2023-05-12T14:42:21.407Z,2.65
2023-05-12T14:43:38.394Z,2.05
2023-05-12T14:44:55.392Z,3.44
2023-05-12T14:46:12.632Z,2.76
2023-05-12T14:47:29.477Z,1.73
2023-05-12T14:48:46.419Z,1.33
2023-05-12T14:50:03.507Z,1.98
2023-05-12T14:51:20.426Z,1.7
2023-05-12T14:52:37.417Z,1.86
2023-05-12T14:53:54.414Z,2.12
2023-05-12T14:55:11.554Z,1.83
2023-05-12T14:56:28.454Z,1.56
2023-05-12T14:57:45.416Z,1.39
2023-05-12T14:59:02.439Z,2.83
2023-05-12T15:00:19.468Z,1.9
2023-05-12T15:01:36.471Z,1.17
2023-05-12T15:02:53.511Z,1.64
2023-05-12T15:04:10.464Z,1.12
2023-05-12T15:05:36.275Z,1.22
2023-05-12T15:06:44.476Z,1.08
2023-05-12T15:08:01.445Z,1.74
2023-05-12T15:09:18.441Z,1.68
2023-05-12T15:10:35.472Z,0.55
2023-05-12T15:11:52.458Z,0.68
2023-05-12T15:13:09.514Z,1.19
2023-05-12T15:14:26.474Z,2.29
2023-05-12T15:15:43.489Z,3.91
2023-05-12T15:17:00.500Z,2.87
2023-05-12T15:18:17.475Z,3.54
2023-05-12T15:19:34.511Z,2.57
2023-05-12T15:20:51.546Z,2.43
2023-05-12T15:22:08.550Z,2.31
2023-05-12T15:23:25.506Z,3.06
2023-05-12T15:24:42.482Z,1.03
2023-05-12T15:26:06.891Z,1.34
2023-05-12T15:27:16.515Z,1.38
2023-05-12T15:28:33.530Z,2.29
2023-05-12T15:29:50.553Z,2.29
2023-05-12T15:31:07.561Z,2.14
2023-05-12T15:32:24.600Z,1.63
2023-05-12T15:33:41.495Z,1.05
2023-05-12T15:34:58.566Z,1.69
2023-05-12T15:36:15.517Z,1.51
2023-05-12T15:37:32.551Z,0.71
2023-05-12T15:38:49.887Z,1.65
2023-05-12T15:40:07.942Z,1.69
2023-05-12T15:41:24.577Z,1.75
2023-05-12T15:42:41.524Z,0.92
2023-05-12T15:43:58.523Z,0.86
2023-05-12T15:45:15.585Z,1.55
2023-05-12T15:46:32.533Z,1.2
2023-05-12T15:47:49.576Z,1.26
2023-05-12T15:49:06.536Z,1.23
2023-05-12T15:50:23.584Z,1.51
2023-05-12T15:51:40.539Z,1.63
2023-05-12T15:52:57.534Z,1.18
2023-05-12T15:54:14.558Z,1.45
2023-05-12T15:55:31.533Z,2.97
2023-05-12T15:56:48.628Z,2.43
2023-05-12T15:58:05.563Z,2.14
2023-05-12T15:59:22.558Z,2.02
2023-05-12T16:00:39.629Z,1.25
2023-05-12T16:01:56.776Z,1.49
2023-05-12T16:03:13.712Z,1.24
2023-05-12T16:04:30.620Z,1.69
2023-05-12T16:05:47.644Z,1.6
2023-05-12T16:07:04.533Z,1.44
2023-05-12T16:08:21.554Z,1.58
2023-05-12T16:09:38.567Z,2.06
2023-05-12T16:10:55.584Z,1.23
2023-05-12T16:12:12.617Z,1.69
2023-05-12T16:13:29.585Z,1.71
2023-05-12T16:14:46.578Z,0.98
2023-05-12T16:16:03.669Z,0.96
2023-05-12T16:17:20.542Z,1.16
2023-05-12T16:18:37.845Z,1.07
2023-05-12T16:19:54.576Z,1.07
2023-05-12T16:21:11.597Z,1.58
2023-05-12T16:22:28.596Z,1.27
2023-05-12T16:23:45.562Z,3.16
2023-05-12T16:25:02.572Z,1.58
2023-05-12T16:26:19.583Z,1.22
2023-05-12T16:27:36.882Z,2.04
2023-05-12T16:28:53.596Z,2.79
2023-05-12T16:30:10.638Z,1.88
2023-05-12T16:31:27.616Z,1.05
2023-05-12T16:32:44.760Z,1.4
2023-05-12T16:34:01.631Z,1.41
2023-05-12T16:35:18.674Z,1.92
2023-05-12T16:36:35.595Z,2.16
2023-05-12T16:37:52.846Z,2.42
2023-05-12T16:39:09.606Z,1.57
2023-05-12T16:40:26.710Z,1.45
2023-05-12T16:41:43.582Z,2.1
2023-05-12T16:43:00.633Z,3.3
2023-05-12T16:44:17.662Z,3.41
2023-05-12T16:45:34.600Z,1.61
2023-05-12T16:46:52.125Z,1.07
2023-05-12T16:48:09.673Z,1.38
2023-05-12T16:49:26.874Z,1.92
2023-05-12T16:50:43.668Z,2.22
2023-05-12T16:52:00.845Z,1.53
2023-05-12T16:53:17.636Z,1.84
2023-05-12T16:54:34.631Z,2.22
2023-05-12T16:55:51.688Z,3.64
2023-05-12T16:57:08.613Z,3.24
2023-05-12T16:58:25.724Z,1.24
2023-05-12T16:59:42.633Z,1.05
2023-05-12T17:00:59.654Z,1.47
2023-05-12T17:02:16.706Z,1.21
2023-05-12T17:03:33.859Z,1.5
2023-05-12T17:04:50.619Z,2.24
2023-05-12T17:06:07.724Z,2.1
2023-05-12T17:07:24.644Z,1.98
2023-05-12T17:08:41.679Z,1.5
2023-05-12T17:09:58.693Z,1.78
2023-05-12T17:11:15.654Z,1.06
2023-05-12T17:12:32.658Z,1.55